Wetterdaten: Woche 08.07.13 - 14.07.13 (KW28)
Datum Zeit Temp. Aussen +5cm Feuchte Auss Luftdruck Regen Sonnenschein Regendauer UV Solar Windben
08.07.2013 00:00 18,7 C 15,5 C 76 % 1029,8 hPa 0,0 l/m 0,00 h 0,00 h 0,0 UV-I 0 W/m 0,0 km/h (0 Bft)
08.07.2013 01:00 17,7 C 14,9 C 80 % 1030,0 hPa 0,0 l/m 0,00 h 0,00 h 0,0 UV-I 0 W/m 0,0 km/h (0 Bft)
08.07.2013 02:00 16,7 C 13,9 C 83 % 1030,2 hPa 0,0 l/m 0,00 h 0,00 h 0,0 UV-I 0 W/m 0,0 km/h (0 Bft)
08.07.2013 03:00 15,7 C 13,2 C 85 % 1030,3 hPa 0,0 l/m 0,00 h 0,00 h 0,0 UV-I 0 W/m 0,0 km/h (0 Bft)
08.07.2013 04:00 14,9 C 12,9 C 87 % 1030,3 hPa 0,0 l/m 0,00 h 0,00 h 0,0 UV-I 0 W/m 0,0 km/h (0 Bft)
08.07.2013 05:00 14,6 C 12,9 C 90 % 1030,2 hPa 0,0 l/m 0,00 h 0,00 h 0,0 UV-I 9 W/m 0,0 km/h (0 Bft)
08.07.2013 06:00 14,7 C 14,1 C 92 % 1030,3 hPa 0,0 l/m 0,00 h 0,00 h 0,0 UV-I 30 W/m 0,0 km/h (0 Bft)
08.07.2013 07:00 15,8 C 15,5 C 94 % 1030,4 hPa 0,0 l/m 0,03 h 0,00 h 0,0 UV-I 60 W/m 5,5 km/h (1 Bft)
08.07.2013 08:00 17,5 C 17,1 C 91 % 1030,5 hPa 0,0 l/m 0,97 h 0,00 h 0,6 UV-I 318 W/m 4,2 km/h (1 Bft)
08.07.2013 09:00 20,2 C 19,7 C 83 % 1030,7 hPa 0,0 l/m 0,97 h 0,00 h 1,2 UV-I 464 W/m 7,2 km/h (2 Bft)
08.07.2013 10:00 23,2 C 28,3 C 73 % 1030,5 hPa 0,0 l/m 0,97 h 0,00 h 2,2 UV-I 598 W/m 9,0 km/h (2 Bft)
08.07.2013 11:00 25,4 C 30,5 C 61 % 1030,3 hPa 0,0 l/m 0,97 h 0,00 h 3,3 UV-I 708 W/m 11,4 km/h (2 Bft)
08.07.2013 12:00 26,7 C 33,4 C 54 % 1030,0 hPa 0,0 l/m 0,97 h 0,00 h 4,1 UV-I 776 W/m 13,7 km/h (3 Bft)
08.07.2013 13:00 27,5 C 32,7 C 50 % 1029,4 hPa 0,0 l/m 0,97 h 0,00 h 2,8 UV-I 804 W/m 13,5 km/h (3 Bft)
08.07.2013 14:00 28,4 C 28,7 C 48 % 1029,1 hPa 0,0 l/m 0,97 h 0,00 h 4,4 UV-I 790 W/m 12,9 km/h (3 Bft)
08.07.2013 15:00 28,6 C 28,6 C 46 % 1028,7 hPa 0,0 l/m 0,95 h 0,00 h 3,8 UV-I 735 W/m 13,0 km/h (3 Bft)
08.07.2013 16:00 28,5 C 28,7 C 49 % 1028,2 hPa 0,0 l/m 0,80 h 0,00 h 2,8 UV-I 642 W/m 14,5 km/h (3 Bft)
08.07.2013 17:00 28,6 C 29,6 C 49 % 1027,9 hPa 0,0 l/m 0,97 h 0,00 h 1,7 UV-I 506 W/m 12,4 km/h (3 Bft)
08.07.2013 18:00 27,6 C 26,4 C 52 % 1027,4 hPa 0,0 l/m 0,40 h 0,00 h 0,9 UV-I 230 W/m 14,1 km/h (3 Bft)
08.07.2013 19:00 26,6 C 25,4 C 56 % 1027,1 hPa 0,0 l/m 0,03 h 0,00 h 0,0 UV-I 70 W/m 13,6 km/h (3 Bft)
08.07.2013 20:00 25,5 C 24,0 C 59 % 1027,1 hPa 0,0 l/m 0,00 h 0,00 h 0,0 UV-I 38 W/m 7,2 km/h (2 Bft)
08.07.2013 21:00 24,2 C 22,1 C 63 % 1027,3 hPa 0,0 l/m 0,00 h 0,00 h 0,0 UV-I 13 W/m 6,9 km/h (2 Bft)
08.07.2013 22:00 22,4 C 20,4 C 68 % 1027,7 hPa 0,0 l/m 0,00 h 0,00 h 0,0 UV-I 0 W/m 5,6 km/h (1 Bft)
08.07.2013 23:00 21,0 C 19,2 C 71 % 1027,7 hPa 0,0 l/m 0,00 h 0,00 h 0,0 UV-I 0 W/m 4,7 km/h (1 Bft)
09.07.2013 00:00 19,8 C 18,1 C 75 % 1027,8 hPa 0,0 l/m 0,00 h 0,00 h 0,0 UV-I 0 W/m 6,2 km/h (2 Bft)
09.07.2013 01:00 18,8 C 17,1 C 80 % 1027,8 hPa 0,0 l/m 0,00 h 0,00 h 0,0 UV-I 0 W/m 1,2 km/h (1 Bft)
09.07.2013 02:00 17,9 C 16,2 C 82 % 1027,7 hPa 0,0 l/m 0,00 h 0,00 h 0,0 UV-I 0 W/m 0,9 km/h (0 Bft)
09.07.2013 03:00 16,9 C 15,1 C 82 % 1027,4 hPa 0,0 l/m 0,00 h 0,00 h 0,0 UV-I 0 W/m 0,4 km/h (0 Bft)
09.07.2013 04:00 15,8 C 14,2 C 77 % 1027,2 hPa 0,0 l/m 0,00 h 0,00 h 0,0 UV-I 0 W/m 0,4 km/h (0 Bft)
09.07.2013 05:00 14,9 C 13,4 C 78 % 1027,0 hPa 0,0 l/m 0,00 h 0,00 h 0,0 UV-I 10 W/m 0,2 km/h (0 Bft)
09.07.2013 06:00 14,3 C 13,3 C 80 % 1026,9 hPa 0,0 l/m 0,00 h 0,00 h 0,0 UV-I 36 W/m 1,1 km/h (0 Bft)
09.07.2013 07:00 14,7 C 14,2 C 80 % 1026,8 hPa 0,0 l/m 0,03 h 0,00 h 0,0 UV-I 73 W/m 5,9 km/h (2 Bft)
09.07.2013 08:00 16,0 C 15,8 C 76 % 1026,6 hPa 0,0 l/m 0,97 h 0,00 h 0,5 UV-I 304 W/m 8,6 km/h (2 Bft)
09.07.2013 09:00 18,4 C 18,0 C 71 % 1026,3 hPa 0,0 l/m 0,97 h 0,00 h 1,1 UV-I 452 W/m 10,8 km/h (2 Bft)
09.07.2013 10:00 20,6 C 25,4 C 69 % 1026,0 hPa 0,0 l/m 0,97 h 0,00 h 2,2 UV-I 590 W/m 9,9 km/h (2 Bft)
09.07.2013 11:00 22,7 C 27,5 C 67 % 1025,6 hPa 0,0 l/m 0,97 h 0,00 h 3,3 UV-I 697 W/m 12,9 km/h (3 Bft)
09.07.2013 12:00 24,4 C 30,7 C 65 % 1025,3 hPa 0,0 l/m 0,97 h 0,00 h 4,0 UV-I 765 W/m 13,1 km/h (3 Bft)
09.07.2013 13:00 25,7 C 30,5 C 62 % 1024,6 hPa 0,0 l/m 0,97 h 0,00 h 2,9 UV-I 799 W/m 14,6 km/h (3 Bft)
09.07.2013 14:00 26,4 C 27,0 C 60 % 1024,0 hPa 0,0 l/m 0,97 h 0,00 h 4,2 UV-I 771 W/m 14,9 km/h (3 Bft)
09.07.2013 15:00 26,7 C 27,4 C 59 % 1023,5 hPa 0,0 l/m 0,97 h 0,00 h 3,6 UV-I 716 W/m 16,6 km/h (3 Bft)
09.07.2013 16:00 26,8 C 27,7 C 59 % 1023,0 hPa 0,0 l/m 0,97 h 0,00 h 2,6 UV-I 617 W/m 17,7 km/h (3 Bft)
09.07.2013 17:00 26,5 C 26,3 C 59 % 1022,4 hPa 0,0 l/m 0,97 h 0,00 h 1,6 UV-I 488 W/m 17,1 km/h (3 Bft)
09.07.2013 18:00 26,0 C 25,1 C 57 % 1022,0 hPa 0,0 l/m 0,57 h 0,00 h 0,8 UV-I 256 W/m 17,3 km/h (3 Bft)
09.07.2013 19:00 25,2 C 24,1 C 54 % 1021,7 hPa 0,0 l/m 0,00 h 0,00 h 0,0 UV-I 61 W/m 17,2 km/h (3 Bft)
09.07.2013 20:00 24,1 C 22,7 C 54 % 1021,8 hPa 0,0 l/m 0,00 h 0,00 h 0,0 UV-I 33 W/m 14,3 km/h (3 Bft)
09.07.2013 21:00 22,7 C 20,6 C 57 % 1021,9 hPa 0,0 l/m 0,00 h 0,00 h 0,0 UV-I 11 W/m 3,0 km/h (1 Bft)
09.07.2013 22:00 20,9 C 17,5 C 63 % 1022,3 hPa 0,0 l/m 0,00 h 0,00 h 0,0 UV-I 0 W/m 0,1 km/h (0 Bft)
09.07.2013 23:00 19,0 C 15,8 C 69 % 1022,4 hPa 0,0 l/m 0,00 h 0,00 h 0,0 UV-I 0 W/m 0,0 km/h (0 Bft)
10.07.2013 00:00 17,8 C 15,1 C 75 % 1022,3 hPa 0,0 l/m 0,00 h 0,00 h 0,0 UV-I 0 W/m 0,2 km/h (0 Bft)
10.07.2013 01:00 16,9 C 15,2 C 81 % 1022,3 hPa 0,0 l/m 0,00 h 0,00 h 0,0 UV-I 0 W/m 0,7 km/h (0 Bft)
10.07.2013 02:00 16,2 C 14,5 C 86 % 1022,3 hPa 0,0 l/m 0,00 h 0,00 h 0,0 UV-I 0 W/m 1,9 km/h (1 Bft)
10.07.2013 03:00 15,4 C 13,8 C 86 % 1022,1 hPa 0,0 l/m 0,00 h 0,00 h 0,0 UV-I 0 W/m 0,7 km/h (0 Bft)
10.07.2013 04:00 14,6 C 13,1 C 86 % 1021,9 hPa 0,0 l/m 0,00 h 0,00 h 0,0 UV-I 0 W/m 0,8 km/h (0 Bft)
10.07.2013 05:00 13,9 C 12,3 C 87 % 1021,8 hPa 0,0 l/m 0,00 h 0,00 h 0,0 UV-I 8 W/m 0,1 km/h (0 Bft)
10.07.2013 06:00 13,8 C 12,8 C 91 % 1021,9 hPa 0,0 l/m 0,00 h 0,00 h 0,0 UV-I 30 W/m 1,3 km/h (1 Bft)
10.07.2013 07:00 14,4 C 14,0 C 94 % 1021,9 hPa 0,0 l/m 0,03 h 0,00 h 0,0 UV-I 67 W/m 7,4 km/h (2 Bft)
10.07.2013 08:00 15,8 C 15,7 C 91 % 1022,1 hPa 0,0 l/m 0,97 h 0,00 h 0,6 UV-I 318 W/m 11,2 km/h (2 Bft)
10.07.2013 09:00 18,4 C 18,1 C 73 % 1022,0 hPa 0,0 l/m 0,97 h 0,00 h 1,3 UV-I 468 W/m 12,8 km/h (3 Bft)
10.07.2013 10:00 20,4 C 25,7 C 67 % 1022,1 hPa 0,0 l/m 0,95 h 0,00 h 2,5 UV-I 610 W/m 12,3 km/h (3 Bft)
10.07.2013 11:00 21,8 C 27,2 C 65 % 1021,9 hPa 0,0 l/m 0,92 h 0,00 h 3,6 UV-I 708 W/m 13,3 km/h (3 Bft)
10.07.2013 12:00 21,8 C 26,2 C 66 % 1021,8 hPa 0,0 l/m 0,67 h 0,00 h 3,5 UV-I 659 W/m 18,4 km/h (3 Bft)
10.07.2013 13:00 20,9 C 22,8 C 74 % 1021,6 hPa 0,0 l/m 0,53 h 0,00 h 2,8 UV-I 518 W/m 22,0 km/h (4 Bft)
10.07.2013 14:00 20,4 C 21,6 C 73 % 1021,4 hPa 0,0 l/m 0,03 h 0,00 h 1,9 UV-I 353 W/m 17,2 km/h (3 Bft)
10.07.2013 15:00 20,2 C 21,0 C 75 % 1021,3 hPa 0,0 l/m 0,07 h 0,00 h 1,5 UV-I 327 W/m 16,5 km/h (3 Bft)
10.07.2013 16:00 20,9 C 21,9 C 72 % 1020,8 hPa 0,0 l/m 0,53 h 0,00 h 2,3 UV-I 481 W/m 15,9 km/h (3 Bft)
10.07.2013 17:00 22,2 C 22,5 C 61 % 1020,3 hPa 0,0 l/m 0,93 h 0,00 h 1,6 UV-I 564 W/m 18,3 km/h (3 Bft)
10.07.2013 18:00 21,8 C 21,3 C 60 % 1019,9 hPa 0,0 l/m 0,50 h 0,00 h 0,7 UV-I 262 W/m 17,5 km/h (3 Bft)
10.07.2013 19:00 20,5 C 19,8 C 64 % 1019,9 hPa 0,0 l/m 0,00 h 0,00 h 0,0 UV-I 95 W/m 20,0 km/h (4 Bft)
10.07.2013 20:00 18,6 C 17,7 C 70 % 1020,1 hPa 0,0 l/m 0,00 h 0,00 h 0,0 UV-I 49 W/m 22,2 km/h (4 Bft)
10.07.2013 21:00 16,7 C 15,4 C 73 % 1020,8 hPa 0,0 l/m 0,00 h 0,00 h 0,0 UV-I 15 W/m 16,8 km/h (3 Bft)
10.07.2013 22:00 15,5 C 14,6 C 74 % 1021,3 hPa 0,0 l/m 0,00 h 0,00 h 0,0 UV-I 0 W/m 17,7 km/h (3 Bft)
10.07.2013 23:00 15,3 C 14,6 C 73 % 1021,5 hPa 0,0 l/m 0,00 h 0,00 h 0,0 UV-I 0 W/m 13,8 km/h (3 Bft)
11.07.2013 00:00 15,0 C 14,1 C 73 % 1021,7 hPa 0,0 l/m 0,00 h 0,00 h 0,0 UV-I 0 W/m 14,6 km/h (3 Bft)
11.07.2013 01:00 14,5 C 13,4 C 74 % 1021,8 hPa 0,0 l/m 0,00 h 0,00 h 0,0 UV-I 0 W/m 7,3 km/h (2 Bft)
11.07.2013 02:00 14,2 C 13,4 C 78 % 1021,7 hPa 0,0 l/m 0,00 h 0,00 h 0,0 UV-I 0 W/m 5,9 km/h (2 Bft)
11.07.2013 03:00 14,0 C 13,1 C 80 % 1021,6 hPa 0,0 l/m 0,00 h 0,00 h 0,0 UV-I 0 W/m 10,0 km/h (2 Bft)
11.07.2013 04:00 13,8 C 12,9 C 81 % 1021,7 hPa 0,0 l/m 0,00 h 0,00 h 0,0 UV-I 0 W/m 10,2 km/h (2 Bft)
11.07.2013 05:00 13,5 C 12,9 C 83 % 1021,6 hPa 0,0 l/m 0,00 h 0,00 h 0,0 UV-I 6 W/m 10,5 km/h (2 Bft)
11.07.2013 06:00 13,3 C 12,9 C 84 % 1021,9 hPa 0,0 l/m 0,00 h 0,00 h 0,0 UV-I 16 W/m 9,3 km/h (2 Bft)
11.07.2013 07:00 13,3 C 12,9 C 85 % 1022,0 hPa 0,0 l/m 0,00 h 0,00 h 0,0 UV-I 45 W/m 7,8 km/h (2 Bft)
11.07.2013 08:00 13,6 C 13,5 C 84 % 1022,2 hPa 0,0 l/m 0,00 h 0,00 h 0,0 UV-I 110 W/m 10,6 km/h (2 Bft)
11.07.2013 09:00 14,3 C 14,8 C 81 % 1022,4 hPa 0,0 l/m 0,00 h 0,00 h 0,0 UV-I 197 W/m 11,3 km/h (2 Bft)
11.07.2013 10:00 14,9 C 15,4 C 77 % 1022,6 hPa 0,0 l/m 0,00 h 0,00 h 0,7 UV-I 207 W/m 9,0 km/h (2 Bft)
11.07.2013 11:00 15,5 C 16,7 C 75 % 1022,7 hPa 0,0 l/m 0,00 h 0,00 h 1,3 UV-I 324 W/m 8,7 km/h (2 Bft)
11.07.2013 12:00 16,2 C 17,5 C 73 % 1022,7 hPa 0,0 l/m 0,00 h 0,00 h 1,5 UV-I 329 W/m 10,0 km/h (2 Bft)
11.07.2013 13:00 16,9 C 18,7 C 71 % 1022,5 hPa 0,0 l/m 0,00 h 0,00 h 2,1 UV-I 404 W/m 7,4 km/h (2 Bft)
11.07.2013 14:00 17,6 C 19,2 C 69 % 1022,3 hPa 0,0 l/m 0,13 h 0,00 h 2,0 UV-I 391 W/m 8,3 km/h (2 Bft)
11.07.2013 15:00 17,7 C 18,8 C 69 % 1022,1 hPa 0,0 l/m 0,00 h 0,00 h 1,3 UV-I 303 W/m 7,4 km/h (2 Bft)
11.07.2013 16:00 18,1 C 19,0 C 67 % 1022,0 hPa 0,0 l/m 0,00 h 0,00 h 0,9 UV-I 263 W/m 5,9 km/h (2 Bft)
11.07.2013 17:00 18,4 C 19,0 C 65 % 1021,9 hPa 0,0 l/m 0,13 h 0,00 h 0,9 UV-I 281 W/m 5,3 km/h (1 Bft)
11.07.2013 18:00 18,8 C 18,9 C 64 % 1021,6 hPa 0,0 l/m 0,17 h 0,00 h 0,7 UV-I 221 W/m 5,9 km/h (2 Bft)
11.07.2013 19:00 18,1 C 17,4 C 65 % 1021,4 hPa 0,0 l/m 0,00 h 0,00 h 0,0 UV-I 65 W/m 4,0 km/h (1 Bft)
11.07.2013 20:00 17,6 C 16,6 C 68 % 1021,6 hPa 0,0 l/m 0,00 h 0,00 h 0,0 UV-I 42 W/m 3,5 km/h (1 Bft)
11.07.2013 21:00 17,1 C 14,6 C 71 % 1021,7 hPa 0,0 l/m 0,00 h 0,00 h 0,0 UV-I 15 W/m 0,1 km/h (0 Bft)
11.07.2013 22:00 15,4 C 12,2 C 76 % 1022,0 hPa 0,0 l/m 0,00 h 0,00 h 0,0 UV-I 0 W/m 0,0 km/h (0 Bft)
11.07.2013 23:00 13,8 C 11,0 C 80 % 1022,1 hPa 0,0 l/m 0,00 h 0,00 h 0,0 UV-I 0 W/m 0,0 km/h (0 Bft)
12.07.2013 00:00 12,5 C 10,0 C 84 % 1022,2 hPa 0,0 l/m 0,00 h 0,00 h 0,0 UV-I 0 W/m 0,0 km/h (0 Bft)
12.07.2013 01:00 11,5 C 9,6 C 86 % 1022,4 hPa 0,0 l/m 0,00 h 0,00 h 0,0 UV-I 0 W/m 0,0 km/h (0 Bft)
12.07.2013 02:00 11,0 C 9,5 C 89 % 1022,4 hPa 0,0 l/m 0,00 h 0,00 h 0,0 UV-I 0 W/m 0,0 km/h (0 Bft)
12.07.2013 03:00 10,6 C 8,8 C 90 % 1022,5 hPa 0,0 l/m 0,00 h 0,00 h 0,0 UV-I 0 W/m 0,0 km/h (0 Bft)
12.07.2013 04:00 10,2 C 8,6 C 92 % 1022,6 hPa 0,0 l/m 0,00 h 0,00 h 0,0 UV-I 0 W/m 0,2 km/h (0 Bft)
12.07.2013 05:00 10,1 C 8,9 C 93 % 1022,6 hPa 0,0 l/m 0,00 h 0,00 h 0,0 UV-I 9 W/m 0,0 km/h (0 Bft)
12.07.2013 06:00 10,0 C 9,3 C 94 % 1022,5 hPa 0,0 l/m 0,00 h 0,00 h 0,0 UV-I 35 W/m 0,0 km/h (0 Bft)
12.07.2013 07:00 10,7 C 10,8 C 96 % 1022,6 hPa 0,0 l/m 0,00 h 0,00 h 0,0 UV-I 79 W/m 1,4 km/h (1 Bft)
12.07.2013 08:00 12,1 C 12,6 C 96 % 1022,9 hPa 0,0 l/m 0,90 h 0,00 h 0,5 UV-I 274 W/m 1,2 km/h (1 Bft)
12.07.2013 09:00 14,3 C 15,0 C 90 % 1023,2 hPa 0,0 l/m 0,40 h 0,00 h 1,0 UV-I 304 W/m 3,8 km/h (1 Bft)
12.07.2013 10:00 16,2 C 17,6 C 81 % 1023,2 hPa 0,0 l/m 0,47 h 0,00 h 1,3 UV-I 350 W/m 7,3 km/h (2 Bft)
12.07.2013 11:00 16,7 C 17,7 C 77 % 1023,2 hPa 0,0 l/m 0,23 h 0,00 h 1,6 UV-I 367 W/m 10,7 km/h (2 Bft)
12.07.2013 12:00 17,1 C 20,3 C 75 % 1023,3 hPa 0,0 l/m 0,65 h 0,00 h 2,7 UV-I 537 W/m 10,9 km/h (2 Bft)
12.07.2013 13:00 18,2 C 21,8 C 68 % 1023,2 hPa 0,0 l/m 0,63 h 0,00 h 2,6 UV-I 643 W/m 13,3 km/h (3 Bft)
12.07.2013 14:00 18,6 C 20,1 C 67 % 1023,1 hPa 0,0 l/m 0,13 h 0,00 h 2,2 UV-I 436 W/m 10,6 km/h (2 Bft)
12.07.2013 15:00 18,3 C 19,0 C 68 % 1022,9 hPa 0,0 l/m 0,00 h 0,00 h 1,2 UV-I 295 W/m 13,1 km/h (3 Bft)
12.07.2013 16:00 18,0 C 18,3 C 70 % 1022,7 hPa 0,0 l/m 0,03 h 0,00 h 0,7 UV-I 241 W/m 12,9 km/h (3 Bft)
12.07.2013 17:00 18,4 C 18,5 C 70 % 1022,4 hPa 0,0 l/m 0,00 h 0,00 h 0,6 UV-I 201 W/m 7,8 km/h (2 Bft)
12.07.2013 18:00 18,3 C 18,2 C 71 % 1022,2 hPa 0,0 l/m 0,00 h 0,00 h 0,0 UV-I 153 W/m 7,3 km/h (2 Bft)
12.07.2013 19:00 18,1 C 17,6 C 72 % 1022,0 hPa 0,0 l/m 0,00 h 0,00 h 0,0 UV-I 80 W/m 4,1 km/h (1 Bft)
12.07.2013 20:00 17,7 C 16,9 C 74 % 1022,0 hPa 0,0 l/m 0,00 h 0,00 h 0,0 UV-I 35 W/m 3,6 km/h (1 Bft)
12.07.2013 21:00 17,3 C 16,3 C 77 % 1022,0 hPa 0,0 l/m 0,00 h 0,00 h 0,0 UV-I 9 W/m 0,4 km/h (0 Bft)
12.07.2013 22:00 16,9 C 15,8 C 79 % 1022,2 hPa 0,0 l/m 0,00 h 0,00 h 0,0 UV-I 0 W/m 0,1 km/h (0 Bft)
12.07.2013 23:00 16,6 C 15,4 C 81 % 1022,2 hPa 0,0 l/m 0,00 h 0,00 h 0,0 UV-I 0 W/m 0,3 km/h (0 Bft)
13.07.2013 00:00 16,2 C 15,1 C 83 % 1022,2 hPa 0,0 l/m 0,00 h 0,00 h 0,0 UV-I 0 W/m 0,2 km/h (0 Bft)
13.07.2013 01:00 15,8 C 14,7 C 85 % 1022,2 hPa 0,0 l/m 0,00 h 0,00 h 0,0 UV-I 0 W/m 0,0 km/h (0 Bft)
13.07.2013 02:00 15,7 C 14,6 C 87 % 1022,2 hPa 0,0 l/m 0,00 h 0,00 h 0,0 UV-I 0 W/m 0,1 km/h (0 Bft)
13.07.2013 03:00 15,5 C 14,6 C 88 % 1022,1 hPa 0,0 l/m 0,00 h 0,00 h 0,0 UV-I 0 W/m 0,0 km/h (0 Bft)
13.07.2013 04:00 15,3 C 14,6 C 89 % 1022,0 hPa 0,0 l/m 0,00 h 0,00 h 0,0 UV-I 0 W/m 0,4 km/h (0 Bft)
13.07.2013 05:00 15,2 C 14,2 C 91 % 1022,2 hPa 0,0 l/m 0,00 h 0,00 h 0,0 UV-I 5 W/m 0,3 km/h (0 Bft)
13.07.2013 06:00 15,1 C 14,3 C 92 % 1022,2 hPa 0,0 l/m 0,00 h 0,00 h 0,0 UV-I 13 W/m 0,0 km/h (0 Bft)
13.07.2013 07:00 15,2 C 15,0 C 92 % 1022,3 hPa 0,0 l/m 0,00 h 0,00 h 0,0 UV-I 61 W/m 0,9 km/h (0 Bft)
13.07.2013 08:00 15,9 C 16,0 C 89 % 1022,5 hPa 0,0 l/m 0,00 h 0,00 h 0,0 UV-I 150 W/m 3,5 km/h (1 Bft)
13.07.2013 09:00 16,7 C 17,2 C 84 % 1022,8 hPa 0,0 l/m 0,00 h 0,00 h 0,7 UV-I 238 W/m 4,9 km/h (1 Bft)
13.07.2013 10:00 17,8 C 19,6 C 79 % 1022,9 hPa 0,0 l/m 0,40 h 0,00 h 1,2 UV-I 370 W/m 7,4 km/h (2 Bft)
13.07.2013 11:00 18,7 C 20,8 C 72 % 1022,9 hPa 0,0 l/m 0,30 h 0,00 h 2,0 UV-I 466 W/m 8,7 km/h (2 Bft)
13.07.2013 12:00 19,5 C 21,5 C 67 % 1023,0 hPa 0,0 l/m 0,23 h 0,00 h 2,0 UV-I 431 W/m 12,3 km/h (3 Bft)
13.07.2013 13:00 20,4 C 23,4 C 63 % 1023,0 hPa 0,0 l/m 0,50 h 0,00 h 2,6 UV-I 633 W/m 11,2 km/h (2 Bft)
13.07.2013 14:00 21,3 C 22,5 C 60 % 1022,9 hPa 0,0 l/m 0,77 h 0,00 h 3,6 UV-I 716 W/m 10,1 km/h (2 Bft)
13.07.2013 15:00 22,6 C 23,4 C 57 % 1022,8 hPa 0,0 l/m 0,93 h 0,00 h 3,6 UV-I 754 W/m 10,0 km/h (2 Bft)
13.07.2013 16:00 22,2 C 22,5 C 57 % 1022,6 hPa 0,0 l/m 0,97 h 0,00 h 2,5 UV-I 606 W/m 10,6 km/h (2 Bft)
13.07.2013 17:00 22,2 C 21,7 C 57 % 1022,5 hPa 0,0 l/m 0,97 h 0,00 h 1,4 UV-I 480 W/m 9,3 km/h (2 Bft)
13.07.2013 18:00 21,8 C 21,0 C 58 % 1022,4 hPa 0,0 l/m 0,43 h 0,00 h 0,6 UV-I 232 W/m 12,3 km/h (3 Bft)
13.07.2013 19:00 21,3 C 20,5 C 60 % 1022,2 hPa 0,0 l/m 0,00 h 0,00 h 0,0 UV-I 107 W/m 9,3 km/h (2 Bft)
13.07.2013 20:00 20,5 C 19,4 C 64 % 1022,3 hPa 0,0 l/m 0,00 h 0,00 h 0,0 UV-I 53 W/m 3,5 km/h (1 Bft)
13.07.2013 21:00 19,7 C 17,8 C 67 % 1022,5 hPa 0,0 l/m 0,30 h 0,00 h 0,0 UV-I 22 W/m 0,0 km/h (0 Bft)
13.07.2013 22:00 18,1 C 14,9 C 74 % 1022,8 hPa 0,0 l/m 0,00 h 0,00 h 0,0 UV-I 0 W/m 0,0 km/h (0 Bft)
13.07.2013 23:00 16,3 C 13,5 C 80 % 1023,2 hPa 0,0 l/m 0,00 h 0,00 h 0,0 UV-I 0 W/m 0,0 km/h (0 Bft)
14.07.2013 00:00 15,0 C 12,7 C 85 % 1023,2 hPa 0,0 l/m 0,00 h 0,00 h 0,0 UV-I 0 W/m 0,0 km/h (0 Bft)
14.07.2013 01:00 14,0 C 12,0 C 87 % 1023,4 hPa 0,0 l/m 0,00 h 0,00 h 0,0 UV-I 0 W/m 0,0 km/h (0 Bft)
14.07.2013 02:00 13,4 C 11,5 C 90 % 1023,5 hPa 0,0 l/m 0,00 h 0,00 h 0,0 UV-I 0 W/m 0,0 km/h (0 Bft)
14.07.2013 03:00 12,8 C 11,2 C 92 % 1023,2 hPa 0,0 l/m 0,00 h 0,00 h 0,0 UV-I 0 W/m 0,0 km/h (0 Bft)
14.07.2013 04:00 12,3 C 10,7 C 93 % 1023,2 hPa 0,0 l/m 0,00 h 0,00 h 0,0 UV-I 0 W/m 0,0 km/h (0 Bft)
14.07.2013 05:00 11,8 C 10,5 C 94 % 1023,3 hPa 0,0 l/m 0,00 h 0,00 h 0,0 UV-I 8 W/m 0,0 km/h (0 Bft)
14.07.2013 06:00 11,7 C 10,8 C 96 % 1023,4 hPa 0,0 l/m 0,00 h 0,00 h 0,0 UV-I 30 W/m 0,0 km/h (0 Bft)
14.07.2013 07:00 12,7 C 12,7 C 97 % 1023,6 hPa 0,0 l/m 0,00 h 0,00 h 0,0 UV-I 74 W/m 1,0 km/h (0 Bft)
14.07.2013 08:00 14,2 C 14,4 C 97 % 1023,7 hPa 0,0 l/m 0,90 h 0,00 h 0,5 UV-I 284 W/m 2,6 km/h (1 Bft)
14.07.2013 09:00 16,8 C 16,9 C 89 % 1024,0 hPa 0,0 l/m 0,97 h 0,00 h 1,0 UV-I 424 W/m 10,7 km/h (2 Bft)
14.07.2013 10:00 18,2 C 20,2 C 82 % 1024,1 hPa 0,0 l/m 0,55 h 0,00 h 1,7 UV-I 437 W/m 13,0 km/h (3 Bft)
14.07.2013 11:00 18,1 C 20,7 C 81 % 1024,1 hPa 0,0 l/m 0,78 h 0,00 h 2,6 UV-I 591 W/m 11,9 km/h (2 Bft)
14.07.2013 12:00 19,1 C 24,2 C 77 % 1024,0 hPa 0,0 l/m 0,83 h 0,00 h 3,8 UV-I 667 W/m 11,6 km/h (2 Bft)
14.07.2013 13:00 20,6 C 25,1 C 72 % 1023,5 hPa 0,0 l/m 0,93 h 0,00 h 2,9 UV-I 757 W/m 13,0 km/h (3 Bft)
14.07.2013 14:00 20,8 C 22,1 C 73 % 1023,4 hPa 0,0 l/m 0,90 h 0,00 h 3,7 UV-I 679 W/m 14,9 km/h (3 Bft)
14.07.2013 15:00 20,8 C 21,6 C 73 % 1023,4 hPa 0,0 l/m 0,97 h 0,00 h 3,4 UV-I 664 W/m 15,3 km/h (3 Bft)
14.07.2013 16:00 20,8 C 21,6 C 71 % 1023,4 hPa 0,0 l/m 0,93 h 0,00 h 2,6 UV-I 602 W/m 14,0 km/h (3 Bft)
14.07.2013 17:00 21,6 C 21,7 C 69 % 1023,1 hPa 0,0 l/m 0,90 h 0,00 h 1,3 UV-I 411 W/m 12,0 km/h (2 Bft)
14.07.2013 18:00 21,3 C 21,0 C 69 % 1022,8 hPa 0,0 l/m 0,50 h 0,00 h 0,6 UV-I 246 W/m 11,2 km/h (2 Bft)
14.07.2013 19:00 21,0 C 20,6 C 70 % 1022,6 hPa 0,0 l/m 0,00 h 0,00 h 0,0 UV-I 135 W/m 5,1 km/h (1 Bft)
14.07.2013 20:00 20,6 C 19,5 C 71 % 1022,3 hPa 0,0 l/m 0,00 h 0,00 h 0,0 UV-I 57 W/m 2,3 km/h (1 Bft)
14.07.2013 21:00 19,9 C 17,3 C 74 % 1022,5 hPa 0,0 l/m 0,00 h 0,00 h 0,0 UV-I 14 W/m 0,0 km/h (0 Bft)
14.07.2013 22:00 18,3 C 15,3 C 79 % 1022,6 hPa 0,0 l/m 0,00 h 0,00 h 0,0 UV-I 0 W/m 0,0 km/h (0 Bft)
14.07.2013 23:00 16,9 C 14,3 C 84 % 1022,6 hPa 0,0 l/m 0,00 h 0,00 h 0,0 UV-I 0 W/m 0,0 km/h (0 Bft)
Min-Datum _ 12.07.13 12.07.13 08.07.13 10.07.13 - - - - - 08.07.13
_ Min-Zeit 06:06 03:46 14:42 18:48 - - - - - 00:00
Minimum _ 9,9 C 8,4 C 45 % 1019,7 hPa - - - - - 0,0 km/h (0 Bft)
Max-Datum _ 08.07.13 08.07.13 14.07.13 08.07.13 08.07.13 08.07.13 08.07.13 10.07.13 12.07.13 10.07.13
_ Max-Zeit 16:06 12:54 07:42 09:08 00:00 07:58 00:00 12:32 13:06 13:50
Maximum _ 29,3 C 35,7 C 98 % 1030,7 hPa 0,0 l/m 0,03 h 0,00 h 4,7 UV-I 1097 W/m 38,6 km/h
N-NW (5 Bft)
Durchschnitt _ 18,2 C 18,1 C 75 % 1023,7 hPa #0,0 l/m #46:10 h #0 min. 2,0 UV-I 317 W/m 7,1 km/h (2 Bft)
© 2013 W. Hausmann